createdAt,value
2019-05-30T00:00:12.524Z,5.73
2019-05-30T00:02:33.681Z,5.60
2019-05-30T00:05:07.535Z,5.97
2019-05-30T00:07:40.962Z,6.13
2019-05-30T00:10:14.627Z,5.93
2019-05-30T00:12:48.058Z,6.10
2019-05-30T00:15:21.481Z,6.03
2019-05-30T00:17:54.916Z,6.40
2019-05-30T00:20:28.346Z,6.23
2019-05-30T00:23:01.781Z,5.67
2019-05-30T00:25:35.204Z,6.00
2019-05-30T00:28:08.641Z,6.10
2019-05-30T00:30:42.063Z,6.50
2019-05-30T00:33:15.492Z,6.00
2019-05-30T00:35:48.917Z,6.40
2019-05-30T00:38:22.345Z,6.20
2019-05-30T00:40:55.796Z,6.37
2019-05-30T00:43:29.271Z,6.30
2019-05-30T00:46:02.701Z,6.03
2019-05-30T00:48:36.120Z,5.73
2019-05-30T00:51:09.556Z,5.17
2019-05-30T00:53:42.964Z,5.80
2019-05-30T00:56:16.409Z,5.73
2019-05-30T00:58:49.830Z,5.13
2019-05-30T01:01:23.274Z,5.50
2019-05-30T01:03:57.124Z,5.63
2019-05-30T01:06:30.556Z,5.77
2019-05-30T01:09:05.180Z,5.73
2019-05-30T01:11:38.656Z,5.77
2019-05-30T01:14:12.344Z,6.33
2019-05-30T01:16:45.775Z,6.60
2019-05-30T01:19:19.193Z,6.90
2019-05-30T01:21:52.632Z,7.50
2019-05-30T01:24:26.048Z,7.37
2019-05-30T01:26:59.497Z,7.93
2019-05-30T01:29:32.913Z,5.67
2019-05-30T01:32:24.349Z,6.47
2019-05-30T01:34:59.779Z,6.80
2019-05-30T01:37:33.533Z,7.50
2019-05-30T01:40:09.017Z,8.50
2019-05-30T01:42:42.606Z,8.30
2019-05-30T01:45:16.092Z,5.97
2019-05-30T01:47:49.529Z,6.10
2019-05-30T01:50:23.121Z,5.47
2019-05-30T01:52:56.545Z,5.20
2019-05-30T01:55:29.956Z,5.07
2019-05-30T01:58:03.410Z,5.20
2019-05-30T02:00:39.528Z,5.10
2019-05-30T02:03:12.974Z,5.20
2019-05-30T02:05:46.460Z,5.37
2019-05-30T02:08:19.893Z,5.43
2019-05-30T02:10:53.381Z,6.37
2019-05-30T02:13:26.815Z,6.60
2019-05-30T02:16:01.476Z,5.77
2019-05-30T02:18:35.157Z,5.60
2019-05-30T02:21:08.581Z,5.50
2019-05-30T02:23:42.019Z,5.03
2019-05-30T02:26:15.503Z,5.33
2019-05-30T02:28:48.942Z,5.93
2019-05-30T02:31:38.302Z,5.57
2019-05-30T02:33:57.521Z,5.33
2019-05-30T02:36:30.950Z,5.33
2019-05-30T02:39:07.432Z,5.63
2019-05-30T02:41:41.587Z,5.53
2019-05-30T02:44:15.041Z,5.70
2019-05-30T02:46:48.462Z,5.97
2019-05-30T02:49:21.907Z,5.83
2019-05-30T02:51:55.684Z,5.53
2019-05-30T02:54:29.118Z,5.93
2019-05-30T02:57:03.550Z,5.57
2019-05-30T02:59:37.355Z,5.27
2019-05-30T03:02:15.244Z,4.97
2019-05-30T03:04:46.377Z,5.27
2019-05-30T03:07:20.267Z,5.40
2019-05-30T03:09:53.779Z,5.17
2019-05-30T03:12:27.265Z,5.10
2019-05-30T03:15:02.461Z,4.70
2019-05-30T03:17:35.845Z,4.80
2019-05-30T03:20:18.872Z,5.03
2019-05-30T03:22:45.258Z,5.40
2019-05-30T03:25:18.819Z,4.83
2019-05-30T03:27:52.312Z,5.10
2019-05-30T03:30:29.078Z,4.83
2019-05-30T03:33:15.691Z,4.50
2019-05-30T03:35:42.839Z,5.03
2019-05-30T03:38:13.556Z,4.83
2019-05-30T03:40:46.888Z,4.83
2019-05-30T03:43:20.321Z,4.90
2019-05-30T03:45:54.377Z,4.90
2019-05-30T03:48:29.248Z,5.00
2019-05-30T03:51:06.195Z,5.20
2019-05-30T03:53:40.561Z,5.00
2019-05-30T03:56:17.057Z,5.40
2019-05-30T03:58:59.127Z,5.07
2019-05-30T04:01:44.626Z,5.43
2019-05-30T04:04:21.138Z,5.47
2019-05-30T04:07:06.993Z,5.30
2019-05-30T04:09:42.882Z,5.80
2019-05-30T04:12:42.082Z,5.10
2019-05-30T04:15:30.374Z,5.20
2019-05-30T04:18:04.528Z,5.27
2019-05-30T04:20:38.039Z,5.63
2019-05-30T04:23:12.598Z,6.27
2019-05-30T04:25:46.672Z,5.47
2019-05-30T04:28:20.089Z,5.93
2019-05-30T04:30:53.524Z,5.20
2019-05-30T04:33:33.141Z,5.40
2019-05-30T04:36:02.103Z,6.00
2019-05-30T04:38:35.517Z,5.67
2019-05-30T04:41:09.072Z,5.47
2019-05-30T04:43:42.557Z,6.23
2019-05-30T04:46:18.543Z,6.00
2019-05-30T04:48:51.151Z,6.57
2019-05-30T04:51:24.581Z,6.30
2019-05-30T04:53:58.000Z,6.10
2019-05-30T04:56:31.441Z,6.23
2019-05-30T04:59:04.871Z,6.63
2019-05-30T05:01:38.302Z,6.17
2019-05-30T05:04:13.426Z,6.70
2019-05-30T05:06:47.044Z,7.20
2019-05-30T05:09:22.168Z,6.60
2019-05-30T05:11:55.638Z,7.30
2019-05-30T05:14:29.066Z,7.10
2019-05-30T05:17:02.498Z,7.00
2019-05-30T05:19:35.926Z,6.83
2019-05-30T05:22:09.396Z,7.00
2019-05-30T05:24:42.825Z,7.20
2019-05-30T05:27:17.566Z,7.17
2019-05-30T05:29:51.273Z,6.77
2019-05-30T05:32:24.707Z,7.27
2019-05-30T05:34:58.142Z,6.73
2019-05-30T05:37:31.578Z,6.40
2019-05-30T05:40:06.861Z,7.03
2019-05-30T05:42:40.286Z,7.17
2019-05-30T05:45:14.403Z,6.80
2019-05-30T05:47:47.843Z,6.70
2019-05-30T05:50:22.453Z,7.27
2019-05-30T05:52:56.188Z,6.83
2019-05-30T05:55:29.654Z,7.20
2019-05-30T05:58:04.321Z,6.77
2019-05-30T06:00:37.905Z,7.30
2019-05-30T06:03:11.397Z,7.03
2019-05-30T06:05:52.862Z,7.30
2019-05-30T06:08:20.001Z,7.37
2019-05-30T06:10:53.437Z,7.57
2019-05-30T06:13:26.870Z,7.40
2019-05-30T06:16:00.299Z,7.37
2019-05-30T06:18:33.724Z,7.57
2019-05-30T06:21:07.225Z,7.70
2019-05-30T06:23:40.645Z,8.33
2019-05-30T06:26:14.100Z,8.00
2019-05-30T06:28:47.523Z,7.60
2019-05-30T06:31:20.966Z,7.33
2019-05-30T06:33:54.379Z,7.80
2019-05-30T06:36:27.814Z,8.47
2019-05-30T06:39:01.249Z,8.80
2019-05-30T06:41:34.700Z,9.17
2019-05-30T06:44:08.197Z,8.70
2019-05-30T06:46:41.637Z,8.90
2019-05-30T06:49:15.076Z,7.87
2019-05-30T06:51:48.523Z,8.17
2019-05-30T06:54:22.934Z,8.20
2019-05-30T06:56:57.144Z,7.80
2019-05-30T06:59:31.725Z,8.30
2019-05-30T07:02:05.940Z,8.27
2019-05-30T07:04:50.760Z,7.80
2019-05-30T07:07:14.687Z,7.70
2019-05-30T07:09:48.232Z,7.90
2019-05-30T07:12:22.813Z,7.53
2019-05-30T07:14:56.575Z,7.40
2019-05-30T07:17:30.008Z,7.57
2019-05-30T07:20:05.589Z,7.47
2019-05-30T07:22:39.096Z,8.07
2019-05-30T07:25:13.753Z,7.57
2019-05-30T07:27:47.184Z,7.90
2019-05-30T07:30:20.943Z,8.30
2019-05-30T07:32:54.401Z,7.70
2019-05-30T07:35:28.016Z,7.40
2019-05-30T07:38:01.755Z,8.13
2019-05-30T07:40:35.413Z,8.00
2019-05-30T07:43:08.845Z,7.07
2019-05-30T07:45:46.774Z,7.70
2019-05-30T07:48:17.424Z,7.97
2019-05-30T07:50:50.855Z,8.77
2019-05-30T07:53:24.275Z,7.97
2019-05-30T07:55:57.696Z,7.40
2019-05-30T07:58:31.197Z,7.03
2019-05-30T08:01:04.725Z,8.60
2019-05-30T08:03:38.880Z,7.10
2019-05-30T08:06:12.644Z,6.63
2019-05-30T08:08:46.078Z,6.10
2019-05-30T08:11:19.498Z,6.33
2019-05-30T08:13:52.933Z,5.90
2019-05-30T08:16:27.085Z,5.97
2019-05-30T08:19:00.658Z,6.70
2019-05-30T08:21:34.271Z,5.07
2019-05-30T08:24:07.784Z,4.80
2019-05-30T08:26:41.213Z,5.20
2019-05-30T08:29:14.657Z,4.30
2019-05-30T08:31:48.085Z,4.10
2019-05-30T08:34:21.527Z,3.63
2019-05-30T08:36:54.945Z,3.47
2019-05-30T08:39:28.949Z,3.23
2019-05-30T08:42:02.678Z,3.17
2019-05-30T08:44:36.129Z,3.20
2019-05-30T08:47:09.561Z,3.30
2019-05-30T08:49:43.566Z,3.07
2019-05-30T08:52:17.000Z,3.20
2019-05-30T08:54:50.445Z,3.20
2019-05-30T08:57:23.888Z,2.50
2019-05-30T08:59:57.301Z,2.73
2019-05-30T09:02:30.735Z,2.50
2019-05-30T09:05:07.186Z,2.50
2019-05-30T09:07:42.716Z,2.50
2019-05-30T09:10:16.859Z,2.17
2019-05-30T09:12:50.285Z,2.63
2019-05-30T09:15:24.648Z,2.40
2019-05-30T09:17:58.076Z,2.30
2019-05-30T09:20:31.565Z,1.83
2019-05-30T09:23:05.010Z,2.20
2019-05-30T09:25:38.855Z,2.00
2019-05-30T09:28:13.340Z,1.80
2019-05-30T09:30:46.756Z,1.77
2019-05-30T09:33:20.198Z,1.57
2019-05-30T09:35:53.616Z,1.50
2019-05-30T09:38:27.054Z,1.20
2019-05-30T09:41:00.480Z,1.30
2019-05-30T09:43:33.909Z,1.50
2019-05-30T09:46:07.391Z,1.30
2019-05-30T09:48:42.056Z,1.77
2019-05-30T09:51:16.012Z,1.30
2019-05-30T09:53:50.439Z,1.33
2019-05-30T09:56:24.233Z,1.20
2019-05-30T09:58:57.664Z,1.80
2019-05-30T10:01:31.169Z,1.50
2019-05-30T10:04:05.072Z,1.40
2019-05-30T10:06:38.485Z,1.70
2019-05-30T10:09:11.929Z,1.50
2019-05-30T10:11:45.648Z,1.57
2019-05-30T10:14:19.215Z,1.60
2019-05-30T10:16:55.956Z,1.57
2019-05-30T10:19:27.805Z,1.60
2019-05-30T10:22:01.338Z,8.40
2019-05-30T10:24:35.032Z,7.77
2019-05-30T10:27:08.489Z,18.90
2019-05-30T10:29:41.924Z,4.17
2019-05-30T10:32:15.363Z,3.73
2019-05-30T10:34:49.559Z,4.13
2019-05-30T10:37:23.401Z,5.00
2019-05-30T10:39:57.834Z,2.50
2019-05-30T10:42:31.986Z,2.97
2019-05-30T10:45:07.779Z,2.23
2019-05-30T10:47:41.275Z,1.60
2019-05-30T10:50:14.841Z,1.53
2019-05-30T10:52:49.317Z,4.57
2019-05-30T10:55:23.714Z,3.83
2019-05-30T10:57:59.382Z,1.50
2019-05-30T11:00:55.560Z,1.50
2019-05-30T11:03:29.484Z,1.47
2019-05-30T11:06:11.650Z,1.43
2019-05-30T11:08:47.936Z,1.40
2019-05-30T11:11:22.625Z,1.40
2019-05-30T11:13:57.018Z,1.20
2019-05-30T11:16:31.045Z,1.40
2019-05-30T11:19:07.742Z,1.20
2019-05-30T11:21:39.772Z,1.33
2019-05-30T11:24:13.197Z,1.20
2019-05-30T11:26:46.628Z,1.30
2019-05-30T11:29:20.058Z,1.30
2019-05-30T11:31:53.492Z,1.20
2019-05-30T11:34:26.900Z,1.30
2019-05-30T11:37:18.055Z,1.17
2019-05-30T11:39:35.484Z,1.50
2019-05-30T11:42:08.913Z,1.40
2019-05-30T11:44:42.418Z,1.17
2019-05-30T11:47:15.852Z,1.37
2019-05-30T11:49:49.569Z,1.20
2019-05-30T11:52:23.301Z,1.30
2019-05-30T11:54:56.778Z,1.30
2019-05-30T11:57:31.329Z,1.30
2019-05-30T12:00:09.297Z,1.37
2019-05-30T12:02:42.716Z,1.40
2019-05-30T12:05:17.392Z,1.30
2019-05-30T12:07:50.812Z,1.50
2019-05-30T12:10:26.084Z,1.30
2019-05-30T12:12:59.589Z,1.60
2019-05-30T12:15:33.084Z,1.40
2019-05-30T12:18:06.505Z,1.30
2019-05-30T12:20:40.514Z,4.63
2019-05-30T12:23:13.936Z,4.47
2019-05-30T12:25:47.381Z,4.60
2019-05-30T12:28:20.791Z,2.67
2019-05-30T12:30:59.524Z,13.67
2019-05-30T12:33:29.372Z,4.60
2019-05-30T12:36:02.845Z,1.77
2019-05-30T12:38:36.270Z,2.00
2019-05-30T12:41:09.710Z,1.60
2019-05-30T12:43:43.171Z,5.30
2019-05-30T12:46:16.640Z,1.87
2019-05-30T12:48:50.066Z,2.90
2019-05-30T12:51:23.492Z,1.67
2019-05-30T12:53:56.908Z,1.57
2019-05-30T12:56:30.343Z,4.67
2019-05-30T12:59:03.842Z,2.47
2019-05-30T13:01:37.272Z,1.77
2019-05-30T13:04:10.702Z,1.60
2019-05-30T13:06:44.145Z,1.50
2019-05-30T13:09:17.636Z,1.57
2019-05-30T13:11:51.068Z,1.57
2019-05-30T13:14:24.492Z,1.60
2019-05-30T13:16:57.922Z,1.47
2019-05-30T13:19:31.420Z,1.43
2019-05-30T13:22:05.515Z,1.40
2019-05-30T13:24:38.949Z,1.60
2019-05-30T13:27:12.379Z,1.87
2019-05-30T13:29:45.792Z,1.70
2019-05-30T13:32:19.236Z,1.50
2019-05-30T13:34:52.653Z,1.60
2019-05-30T13:37:26.098Z,1.60
2019-05-30T13:39:59.523Z,1.43
2019-05-30T13:42:32.952Z,1.67
2019-05-30T13:45:09.752Z,1.50
2019-05-30T13:47:43.189Z,1.60
2019-05-30T13:50:16.839Z,1.60
2019-05-30T13:52:50.417Z,1.40
2019-05-30T13:55:23.983Z,1.40
2019-05-30T13:57:57.421Z,1.70
2019-05-30T14:00:30.842Z,1.60
2019-05-30T14:03:06.214Z,3.50
2019-05-30T14:05:39.759Z,15.37
2019-05-30T14:08:16.428Z,10.20
2019-05-30T14:10:48.715Z,2.90
2019-05-30T14:13:22.396Z,1.90
2019-05-30T14:15:55.817Z,2.10
2019-05-30T14:18:29.254Z,2.00
2019-05-30T14:21:03.620Z,1.80
2019-05-30T14:23:37.376Z,3.93
2019-05-30T14:26:11.614Z,2.50
2019-05-30T14:28:45.209Z,2.20
2019-05-30T14:31:18.620Z,4.47
2019-05-30T14:33:52.057Z,3.37
2019-05-30T14:36:25.485Z,2.63
2019-05-30T14:38:59.241Z,1.77
2019-05-30T14:41:32.941Z,2.07
2019-05-30T14:44:07.179Z,1.90
2019-05-30T14:46:40.667Z,1.77
2019-05-30T14:49:14.148Z,1.83
2019-05-30T14:51:47.565Z,1.70
2019-05-30T14:54:21.003Z,1.80
2019-05-30T14:56:54.425Z,1.80
2019-05-30T14:59:27.849Z,1.83
2019-05-30T15:02:01.276Z,1.70
2019-05-30T15:04:34.743Z,1.70
2019-05-30T15:07:09.246Z,1.87
2019-05-30T15:09:42.861Z,2.13
2019-05-30T15:12:16.950Z,1.70
2019-05-30T15:14:50.684Z,1.90
2019-05-30T15:17:24.890Z,1.70
2019-05-30T15:19:58.312Z,1.80
2019-05-30T15:22:31.730Z,2.00
2019-05-30T15:25:08.115Z,1.70
2019-05-30T15:27:41.605Z,1.90
2019-05-30T15:30:16.981Z,1.70
2019-05-30T15:32:50.781Z,2.13
2019-05-30T15:35:24.221Z,1.90
2019-05-30T15:37:57.652Z,2.10
2019-05-30T15:40:31.086Z,2.70
2019-05-30T15:43:04.516Z,2.90
2019-05-30T15:45:37.951Z,2.43
2019-05-30T15:48:12.269Z,2.53
2019-05-30T15:50:45.994Z,5.93
2019-05-30T15:53:19.424Z,7.27
2019-05-30T15:55:52.861Z,6.50
2019-05-30T15:58:26.287Z,3.70
2019-05-30T16:00:59.729Z,4.50
2019-05-30T16:03:33.165Z,3.67
2019-05-30T16:06:06.606Z,2.80
2019-05-30T16:08:40.017Z,2.80
2019-05-30T16:11:13.448Z,2.40
2019-05-30T16:13:46.880Z,2.70
2019-05-30T16:16:37.086Z,3.40
2019-05-30T16:18:55.464Z,3.33
2019-05-30T16:21:28.899Z,3.10
2019-05-30T16:24:02.323Z,3.30
2019-05-30T16:26:35.777Z,3.23
2019-05-30T16:29:09.200Z,3.30
2019-05-30T16:31:42.640Z,2.70
2019-05-30T16:34:16.158Z,2.87
2019-05-30T16:36:49.693Z,3.00
2019-05-30T16:39:23.137Z,2.67
2019-05-30T16:41:56.669Z,2.80
2019-05-30T16:44:30.099Z,2.50
2019-05-30T16:47:04.007Z,2.33
2019-05-30T16:49:37.424Z,2.50
2019-05-30T16:52:10.856Z,2.30
2019-05-30T16:54:44.286Z,2.20
2019-05-30T16:57:18.521Z,2.43
2019-05-30T16:59:52.211Z,2.30
2019-05-30T17:02:25.646Z,2.60
2019-05-30T17:04:59.069Z,2.70
2019-05-30T17:07:32.511Z,2.60
2019-05-30T17:10:21.546Z,2.40
2019-05-30T17:12:42.932Z,2.80
2019-05-30T17:15:17.793Z,3.00
2019-05-30T17:17:51.506Z,3.20
2019-05-30T17:20:24.986Z,3.17
2019-05-30T17:22:58.412Z,3.00
2019-05-30T17:25:31.905Z,2.60
2019-05-30T17:28:05.401Z,2.40
2019-05-30T17:30:38.823Z,2.53
2019-05-30T17:33:12.264Z,2.53
2019-05-30T17:35:46.319Z,2.97
2019-05-30T17:38:20.438Z,2.67
2019-05-30T17:40:54.172Z,2.33
2019-05-30T17:43:27.617Z,2.50
2019-05-30T17:46:01.079Z,2.50
2019-05-30T17:48:34.624Z,2.40
2019-05-30T17:51:08.094Z,2.60
2019-05-30T17:53:41.534Z,3.43
2019-05-30T17:56:14.970Z,2.83
2019-05-30T17:58:48.404Z,2.50
2019-05-30T18:01:22.245Z,2.47
2019-05-30T18:03:55.961Z,2.30
2019-05-30T18:06:29.390Z,2.40
2019-05-30T18:09:03.997Z,2.40
2019-05-30T18:11:37.425Z,3.00
2019-05-30T18:14:10.861Z,2.70
2019-05-30T18:16:44.280Z,2.17
2019-05-30T18:19:17.715Z,2.30
2019-05-30T18:21:51.160Z,2.40
2019-05-30T18:24:25.613Z,2.50
2019-05-30T18:26:59.296Z,2.00
2019-05-30T18:29:32.739Z,2.20
2019-05-30T18:32:06.232Z,2.50
2019-05-30T18:34:39.671Z,2.07
2019-05-30T18:37:13.163Z,2.23
2019-05-30T18:39:46.641Z,2.27
2019-05-30T18:42:20.111Z,1.80
2019-05-30T18:44:53.552Z,1.90
2019-05-30T18:47:27.042Z,1.97
2019-05-30T18:50:00.553Z,2.00
2019-05-30T18:52:33.977Z,1.97
2019-05-30T18:55:09.468Z,2.07
2019-05-30T18:57:42.889Z,2.17
2019-05-30T19:00:18.477Z,2.10
2019-05-30T19:02:52.176Z,1.87
2019-05-30T19:05:26.604Z,1.83
2019-05-30T19:08:00.280Z,1.80
2019-05-30T19:10:34.297Z,2.00
2019-05-30T19:13:07.866Z,1.90
2019-05-30T19:15:41.720Z,1.90
2019-05-30T19:18:15.269Z,1.80
2019-05-30T19:20:48.714Z,2.53
2019-05-30T19:23:22.137Z,2.23
2019-05-30T19:25:55.577Z,2.13
2019-05-30T19:28:29.001Z,2.27
2019-05-30T19:31:02.447Z,2.00
2019-05-30T19:33:37.066Z,1.90
2019-05-30T19:36:10.791Z,1.70
2019-05-30T19:38:44.226Z,1.87
2019-05-30T19:41:17.661Z,2.10
2019-05-30T19:43:51.119Z,2.20
2019-05-30T19:46:24.618Z,2.10
2019-05-30T19:48:58.056Z,2.17
2019-05-30T19:51:31.843Z,2.10
2019-05-30T19:54:06.413Z,3.20
2019-05-30T19:56:41.665Z,2.60
2019-05-30T19:59:15.002Z,2.00
2019-05-30T20:01:48.420Z,1.90
2019-05-30T20:04:21.861Z,1.80
2019-05-30T20:06:55.276Z,2.10
2019-05-30T20:09:28.721Z,2.13
2019-05-30T20:12:04.975Z,2.50
2019-05-30T20:14:37.297Z,2.10
2019-05-30T20:17:10.716Z,2.27
2019-05-30T20:19:44.149Z,2.20
2019-05-30T20:22:17.593Z,2.30
2019-05-30T20:24:51.078Z,2.43
2019-05-30T20:27:24.513Z,2.30
2019-05-30T20:29:58.013Z,2.53
2019-05-30T20:32:31.524Z,2.57
2019-05-30T20:35:05.993Z,2.90
2019-05-30T20:37:40.683Z,3.40
2019-05-30T20:40:14.773Z,2.87
2019-05-30T20:42:48.264Z,2.90
2019-05-30T20:45:22.141Z,2.93
2019-05-30T20:47:55.556Z,2.60
2019-05-30T20:50:29.088Z,2.40
2019-05-30T20:53:02.505Z,2.80
2019-05-30T20:55:36.377Z,2.80
2019-05-30T20:58:10.047Z,3.00
2019-05-30T21:00:43.865Z,3.13
2019-05-30T21:03:18.165Z,2.87
2019-05-30T21:05:51.972Z,2.93
2019-05-30T21:08:25.745Z,3.03
2019-05-30T21:11:00.717Z,3.83
2019-05-30T21:13:36.199Z,3.60
2019-05-30T21:16:13.203Z,4.20
2019-05-30T21:18:46.764Z,3.30
2019-05-30T21:21:20.482Z,3.20
2019-05-30T21:23:53.897Z,3.10
2019-05-30T21:26:27.336Z,3.10
2019-05-30T21:29:00.766Z,3.27
2019-05-30T21:31:34.218Z,3.30
2019-05-30T21:34:07.636Z,2.97
2019-05-30T21:36:42.031Z,3.00
2019-05-30T21:39:15.665Z,3.17
2019-05-30T21:41:49.100Z,2.87
2019-05-30T21:44:22.521Z,2.60
2019-05-30T21:46:55.948Z,3.23
2019-05-30T21:49:29.369Z,3.10
2019-05-30T21:52:02.815Z,3.30
2019-05-30T21:54:36.227Z,2.90
2019-05-30T21:57:09.784Z,3.40
2019-05-30T21:59:44.308Z,3.67
2019-05-30T22:02:18.062Z,3.20
2019-05-30T22:04:51.549Z,2.87
2019-05-30T22:07:24.985Z,3.70
2019-05-30T22:09:58.407Z,3.40
2019-05-30T22:12:31.849Z,2.90
2019-05-30T22:15:08.117Z,3.00
2019-05-30T22:17:41.761Z,3.33
2019-05-30T22:20:15.489Z,3.03
2019-05-30T22:22:50.147Z,3.20
2019-05-30T22:25:23.816Z,3.13
2019-05-30T22:27:57.251Z,2.83
2019-05-30T22:30:30.688Z,3.00
2019-05-30T22:33:04.189Z,2.90
2019-05-30T22:35:37.614Z,3.20
2019-05-30T22:38:11.050Z,3.10
2019-05-30T22:40:45.593Z,3.07
2019-05-30T22:43:25.407Z,3.37
2019-05-30T22:45:54.481Z,3.07
2019-05-30T22:48:27.918Z,3.00
2019-05-30T22:51:01.332Z,2.93
2019-05-30T22:53:34.833Z,3.30
2019-05-30T22:56:08.252Z,3.10
2019-05-30T22:58:41.685Z,3.27
2019-05-30T23:01:15.109Z,2.97
2019-05-30T23:03:49.161Z,3.20
2019-05-30T23:06:22.712Z,2.93
2019-05-30T23:08:56.897Z,3.43
2019-05-30T23:11:30.451Z,3.60
2019-05-30T23:14:03.945Z,3.10
2019-05-30T23:16:37.390Z,3.30
2019-05-30T23:19:10.821Z,2.93
2019-05-30T23:21:44.244Z,3.27
2019-05-30T23:24:17.694Z,3.40
2019-05-30T23:26:51.725Z,3.60
2019-05-30T23:29:25.425Z,3.50
2019-05-30T23:31:58.841Z,3.20
2019-05-30T23:34:32.268Z,3.33
2019-05-30T23:37:05.685Z,3.20
2019-05-30T23:39:39.122Z,3.53
2019-05-30T23:42:12.549Z,3.10
2019-05-30T23:44:45.981Z,3.30
2019-05-30T23:47:19.419Z,3.00
2019-05-30T23:49:53.840Z,3.17
2019-05-30T23:52:27.480Z,3.30
2019-05-30T23:55:02.257Z,3.17
2019-05-30T23:57:36.277Z,3.43
